Flight Track Log - Related Links

Times and Time Zones

All times are in EDT time to prevent confusion due to time zone crossing. See the SKW4487 flight status page for this flight to view local times or setup timezone preferences in your user account.

Time Position Orientation Groundspeed Altitude Reporting Facility
EDT Latitude Longitude Course Direction KTS MPH feet Rate Location/Type
Mon 11:08:50 AM 40.7692 -111.9978 90° East 171 197 4,800  Level Salt Lake Center
Mon 11:09:20 AM 40.7475 -112.0078 199° South 184 212 5,600 1,535 Climbing Salt Lake Center
Mon 11:10:16 AM 40.7597 -112.0711 284° West 245 282 7,000 1,969 Climbing Salt Lake Center
Mon 11:11:00 AM 40.9507 -112.2333 North  Level FlightAware Approximate
Mon 11:11:28 AM 40.8289 -112.1589 316° Northwest 272 313 9,800  Level Salt Lake Center
Mon 11:12:00 AM 41.0108 -112.1469 81° East  Level FlightAware Approximate
Mon 11:12:21 AM 40.8731 -112.2017 324° Northwest 277 319 11,400  Level Salt Lake Center
Mon 11:13:00 AM 41.0167 -111.9946 90° East  Level FlightAware Approximate
Mon 11:13:23 AM 40.9333 -112.1461 35° Northeast 301 346 13,100  Level Salt Lake Center
Mon 11:14:00 AM 41.0168 -111.8416 90° East  Level FlightAware Approximate
Mon 11:14:25 AM 40.9553 -112.0106 78° East 319 367 15,500  Level Salt Lake Center
Mon 11:15:27 AM 40.9781 -111.8931 76° East 333 383 17,500 1,742 Climbing Salt Lake Center
Mon 11:16:29 AM 40.9989 -111.7778 76° East 341 392 19,100 1,694 Climbing Salt Lake Center
Mon 11:17:31 AM 41.0261 -111.6303 76° East 352 405 21,000 1,645 Climbing Salt Lake Center
Mon 11:18:33 AM 41.0386 -111.4972 83° East 365 420 22,500 1,452 Climbing Salt Lake Center
Mon 11:19:35 AM 41.0508 -111.3592 83° East 379 436 24,000 1,452 Climbing Salt Lake Center
Mon 11:20:37 AM 41.0622 -111.2192 84° East 383 441 25,500 1,452 Climbing Salt Lake Center
Mon 11:21:39 AM 41.0758 -111.0775 83° East 389 448 27,000 1,452 Climbing Salt Lake Center
Mon 11:22:41 AM 41.1097 -110.9419 72° East 388 447 28,500 1,306 Climbing Salt Lake Center
Mon 11:23:43 AM 41.1489 -110.7797 72° East 392 451 29,700 968 Climbing Salt Lake Center
Mon 11:24:45 AM 41.1828 -110.6458 71° East 399 459 30,500 823 Climbing Salt Lake Center
Mon 11:25:47 AM 41.2244 -110.4861 71° East 409 471 31,400 823 Climbing Salt Lake Center
Mon 11:26:49 AM 41.2597 -110.3461 71° East 415 478 32,200 823 Climbing Salt Lake Center
Mon 11:27:51 AM 41.3025 -110.1803 71° East 423 487 33,100 823 Climbing Salt Lake Center
Mon 11:28:53 AM 41.3383 -110.0369 72° East 426 490 33,900 726 Climbing Salt Lake Center
Mon 11:29:55 AM 41.3744 -109.8942 71° East 425 489 34,600 532 Climbing Salt Lake Center
Mon 11:30:57 AM 41.4161 -109.7278 71° East 424 488 35,000 194 Climbing Salt Lake Center
Mon 11:31:59 AM 41.4511 -109.5861 72° East 421 484 35,000  Level Salt Lake Center
Mon 11:33:01 AM 41.4922 -109.4217 71° East 418 481 35,000  Level Salt Lake Center
Mon 11:34:03 AM 41.5272 -109.2783 72° East 420 483 35,000  Level Salt Lake Center
Mon 11:35:05 AM 41.5697 -109.1078 72° East 425 489 35,000  Level Salt Lake Center
Mon 11:36:07 AM 41.5992 -108.9594 75° East 426 490 35,000  Level Salt Lake Center
Mon 11:37:09 AM 41.6197 -108.8111 79° East 425 489 35,000  Level Salt Lake Center
Mon 11:38:11 AM 41.6431 -108.6386 80° East 422 486 35,000  Level Salt Lake Center
Mon 11:39:13 AM 41.6636 -108.4892 80° East 426 490 35,000  Level Salt Lake Center
Mon 11:40:15 AM 41.6875 -108.3142 80° East 430 495 35,000  Level Salt Lake Center
Mon 11:41:17 AM 41.7078 -108.1653 80° East 428 493 35,000  Level Salt Lake Center
Mon 11:42:01 AM 41.7253 -108.0381 80° East 431 496 35,000  Level Denver Center
Mon 11:43:03 AM 41.7456 -107.8881 80° East 429 494 35,000  Level Denver Center
Mon 11:44:05 AM 41.7697 -107.7139 79° East 427 491 35,000  Level Denver Center
Mon 11:45:07 AM 41.7894 -107.5614 80° East 433 498 35,000  Level Denver Center
Mon 11:46:09 AM 41.8117 -107.3875 80° East 426 490 35,000  Level Denver Center
Mon 11:47:11 AM 41.8297 -107.2367 81° East 424 488 35,000  Level Denver Center
Mon 11:48:13 AM 41.8531 -107.0631 80° East 424 488 35,000  Level Denver Center
Mon 11:49:15 AM 41.8711 -106.9133 81° East 424 488 35,000  Level Denver Center
Mon 11:50:17 AM 41.8936 -106.7372 80° East 428 493 35,000  Level Denver Center
Mon 11:51:19 AM 41.9108 -106.5881 81° East 423 487 35,000  Level Denver Center
Mon 11:52:21 AM 41.9314 -106.4175 81° East 424 488 35,000  Level Denver Center
Mon 11:53:23 AM 41.9494 -106.2697 81° East 420 483 35,000  Level Denver Center
Mon 11:54:25 AM 41.9703 -106.0967 81° East 418 481 35,000  Level Denver Center
Mon 11:55:27 AM 41.9875 -105.9475 81° East 422 486 35,000  Level Denver Center
Mon 11:56:29 AM 42.0053 -105.7983 81° East 423 487 35,000  Level Denver Center
Mon 11:57:31 AM 42.0231 -105.6242 82° East 422 486 35,000  Level Denver Center
Mon 11:58:33 AM 42.0414 -105.4747 81° East 423 487 35,000  Level Denver Center
Mon 11:59:35 AM 42.0589 -105.3006 82° East 423 487 35,000  Level Denver Center
Mon 12:00:37 PM 42.0747 -105.1511 82° East 423 487 35,000  Level Denver Center
Mon 12:01:39 PM 42.0914 -104.9731 83° East 430 495 35,000  Level Denver Center
Mon 12:02:41 PM 42.1028 -104.8236 84° East 424 488 35,000  Level Denver Center
Mon 12:03:43 PM 42.1194 -104.6489 83° East 423 487 35,000  Level Denver Center
Mon 12:04:45 PM 42.1319 -104.4975 84° East 427 491 35,000  Level Denver Center
Mon 12:05:47 PM 42.1461 -104.3214 84° East 428 493 35,000  Level Denver Center
Mon 12:06:49 PM 42.1572 -104.1728 84° East 422 486 35,000  Level Denver Center
Mon 12:07:51 PM 42.1717 -103.9958 84° East 427 491 35,000  Level Denver Center
Mon 12:08:53 PM 42.1839 -103.8450 84° East 427 491 35,000  Level Denver Center
Mon 12:09:55 PM 42.1986 -103.6689 84° East 425 489 35,000  Level Denver Center
Mon 12:10:58 PM 42.2103 -103.5172 84° East 426 490 35,000  Level Denver Center
Mon 12:12:00 PM 42.2228 -103.3414 84° East 425 489 35,000  Level Denver Center
Mon 12:13:14 PM 42.2375 -103.1381 84° East 427 491 35,000  Level Denver Center
Mon 12:14:16 PM 42.2497 -102.9853 84° East 428 493 35,000  Level Denver Center
Mon 12:15:18 PM 42.2619 -102.8067 85° East 428 493 35,000  Level Denver Center
Mon 12:16:20 PM 42.2717 -102.6519 85° East 431 496 35,000  Level Denver Center
Mon 12:17:22 PM 42.2825 -102.4983 85° East 432 497 35,000  Level Denver Center
Mon 12:18:24 PM 42.2944 -102.3178 85° East 431 496 35,000  Level Denver Center
Mon 12:19:26 PM 42.3042 -102.1611 85° East 435 501 35,000  Level Denver Center
Mon 12:20:28 PM 42.3144 -101.9822 85° East 429 494 35,000  Level Denver Center
Mon 12:21:30 PM 42.3261 -101.8153 85° East 435 501 35,000  Level Denver Center
Mon 12:22:32 PM 42.3350 -101.6603 86° East 433 498 35,000  Level Denver Center
Mon 12:23:34 PM 42.3458 -101.4797 85° East 431 496 35,000  Level Denver Center
Mon 12:24:36 PM 42.3547 -101.3244 86° East 432 497 35,000  Level Denver Center
Mon 12:25:38 PM 42.3636 -101.1483 86° East 423 487 35,000  Level Denver Center
Mon 12:26:40 PM 42.3711 -100.9956 86° East 424 488 35,000  Level Denver Center
Mon 12:27:42 PM 42.3808 -100.8183 86° East 423 487 35,000  Level Denver Center
Mon 12:28:44 PM 42.3883 -100.6669 86° East 422 486 35,000  Level Denver Center
Mon 12:29:47 PM 42.3969 -100.4900 86° East 422 486 35,000  Level Denver Center
Mon 12:30:49 PM 42.4036 -100.3381 87° East 422 486 35,000  Level Denver Center
Mon 12:31:51 PM 42.4117 -100.1867 86° East 421 484 35,000  Level Denver Center
Mon 12:32:33 PM 42.4167 -100.0567 87° East 420 483 35,000  Level Minneapolis Center
Mon 12:32:53 PM 42.4189 -100.0094 86° East 422 486 35,000  Level Denver Center
Mon 12:33:55 PM 42.4258 -99.8611 86° East 416 479 35,000  Level Denver Center
Mon 12:34:37 PM 42.4300 -99.7428 87° East 417 480 35,000  Level Minneapolis Center
Mon 12:35:39 PM 42.4372 -99.5842 86° East 419 482 35,000  Level Minneapolis Center
Mon 12:35:59 PM 42.4397 -99.5194 87° East 419 482 35,000  Level Denver Center
Mon 12:37:01 PM 42.4450 -99.3611 87° East 419 482 35,000  Level Denver Center
Mon 12:37:42 PM 42.4500 -99.2686 86° East 418 481 35,000 58 Level Minneapolis Center
Mon 12:38:44 PM 42.4558 -99.1089 87° East 421 484 35,100 48 Climbing Minneapolis Center
Mon 12:39:46 PM 42.4625 -98.9203 87° East 419 482 35,100  Level Minneapolis Center
Mon 12:40:48 PM 42.4683 -98.7614 87° East 420 483 35,100  Level Minneapolis Center
Mon 12:41:50 PM 42.4742 -98.6011 87° East 424 488 35,100  Level Minneapolis Center
Mon 12:42:52 PM 42.4831 -98.4403 86° East 427 491 35,100  Level Minneapolis Center
Mon 12:43:54 PM 42.4917 -98.2783 86° East 429 494 35,100  Level Minneapolis Center
Mon 12:44:56 PM 42.4994 -98.1167 86° East 430 495 35,100  Level Minneapolis Center
Mon 12:45:58 PM 42.5061 -97.9536 87° East 433 498 35,100 -48 Level Minneapolis Center
Mon 12:47:00 PM 42.5131 -97.7822 87° East 433 498 35,000 -48 Descending Minneapolis Center
Mon 12:48:02 PM 42.5211 -97.6203 86° East 431 496 35,000  Level Minneapolis Center
Mon 12:49:04 PM 42.5286 -97.4236 87° East 434 499 35,000  Level Minneapolis Center
Mon 12:50:06 PM 42.5350 -97.2628 87° East 428 493 35,000  Level Minneapolis Center
Mon 12:51:08 PM 42.5417 -97.1017 87° East 429 494 35,000  Level Minneapolis Center
Mon 12:52:10 PM 42.5467 -96.9411 88° East 426 490 35,000  Level Minneapolis Center
Mon 12:53:12 PM 42.5531 -96.7797 87° East 427 491 35,000  Level Minneapolis Center
Mon 12:54:14 PM 42.5578 -96.6203 88° East 424 488 35,000  Level Minneapolis Center
Mon 12:55:16 PM 42.5636 -96.4592 87° East 426 490 35,000  Level Minneapolis Center
Mon 12:56:18 PM 42.5692 -96.2681 88° East 424 488 35,000  Level Minneapolis Center
Mon 12:57:20 PM 42.5736 -96.1072 88° East 424 488 35,000  Level Minneapolis Center
Mon 12:58:22 PM 42.5786 -95.9481 88° East 423 487 35,000  Level Minneapolis Center
Mon 12:59:25 PM 42.5825 -95.7881 88° East 423 487 35,000  Level Minneapolis Center
Mon 01:00:27 PM 42.5869 -95.6275 88° East 425 489 35,000  Level Minneapolis Center
Mon 01:01:29 PM 42.5894 -95.4672 89° East 425 489 35,000  Level Minneapolis Center
Mon 01:02:31 PM 42.5933 -95.3064 88° East 425 489 35,000  Level Minneapolis Center
Mon 01:03:33 PM 42.5983 -95.1144 88° East 424 488 35,000  Level Minneapolis Center
Mon 01:04:35 PM 42.6008 -94.9856 88° East 426 490 35,000  Level Minneapolis Center
Mon 01:05:37 PM 42.6033 -94.7925 89° East 426 490 35,000  Level Minneapolis Center
Mon 01:06:39 PM 42.6064 -94.6314 88° East 427 491 35,000  Level Minneapolis Center
Mon 01:07:41 PM 42.6103 -94.4575 88° East 427 491 35,000  Level Minneapolis Center
Mon 01:08:43 PM 42.6125 -94.2981 89° East 427 491 35,000  Level Minneapolis Center
Mon 01:09:45 PM 42.6050 -94.1383 94° East 428 493 35,000  Level Minneapolis Center
Mon 01:11:00 PM 42.5942 -93.9442 94° East 433 498 35,000  Level Minneapolis Center
Mon 01:12:02 PM 42.5856 -93.7522 93° East 430 495 35,000  Level Minneapolis Center
Mon 01:13:04 PM 42.5783 -93.5911 93° East 431 496 35,000  Level Minneapolis Center
Mon 01:14:06 PM 42.5706 -93.4317 94° East 429 494 35,000  Level Minneapolis Center
Mon 01:15:08 PM 42.5617 -93.2703 94° East 432 497 35,000  Level Minneapolis Center
Mon 01:16:10 PM 42.5544 -93.1097 93° East 431 496 35,000  Level Minneapolis Center
Mon 01:17:12 PM 42.5439 -92.9181 94° East 430 495 35,000  Level Minneapolis Center
Mon 01:18:16 PM 42.5342 -92.7575 95° East 429 494 35,000  Level Minneapolis Center
Mon 01:19:18 PM 42.5253 -92.5967 94° East 431 496 35,000  Level Minneapolis Center
Mon 01:20:20 PM 42.5164 -92.4369 94° East 432 497 35,000  Level Minneapolis Center
Mon 01:21:22 PM 42.5044 -92.2436 95° East 434 499 35,000  Level Minneapolis Center
Mon 01:22:32 PM 42.4931 -92.0503 95° East 432 497 35,000  Level Chicago Center
Mon 01:23:34 PM 42.4831 -91.8908 95° East 433 498 35,000  Level Chicago Center
Mon 01:24:36 PM 42.4722 -91.7328 95° East 432 497 35,000  Level Chicago Center
Mon 01:25:38 PM 42.4619 -91.5744 95° East 431 496 35,000  Level Chicago Center
Mon 01:26:40 PM 42.4497 -91.3842 95° East 431 496 35,000  Level Chicago Center
Mon 01:27:42 PM 42.4383 -91.2261 96° East 429 494 35,000 -339 Level Chicago Center
Mon 01:28:44 PM 42.4275 -91.0669 95° East 431 496 34,300 -1,113 Descending Chicago Center
Mon 01:29:46 PM 42.4144 -90.9078 96° East 431 496 32,700 -1,584 Descending Chicago Center
Mon 01:30:49 PM 42.4044 -90.7486 95° East 430 495 31,000 -1,776 Descending Chicago Center
Mon 01:31:51 PM 42.4169 -90.5592 85° East 425 489 29,000 -1,839 Descending Chicago Center
Mon 01:32:53 PM 42.4325 -90.3969 83° East 439 505 27,200 -1,742 Descending Chicago Center
Mon 01:33:55 PM 42.4444 -90.2239 85° East 467 537 25,400 -1,742 Descending Chicago Center
Mon 01:34:57 PM 42.4378 -90.0519 93° East 467 537 23,600 -1,790 Descending Chicago Center
Mon 01:35:59 PM 42.4306 -89.8667 93° East 454 522 21,700 -1,258 Descending Chicago Center
Mon 01:37:01 PM 42.4239 -89.7022 93° East 441 507 21,000 -532 Descending Chicago Center
Mon 01:38:03 PM 42.4169 -89.5094 93° East 441 507 20,600 -677 Descending Chicago Center
Mon 01:39:05 PM 42.4103 -89.3389 93° East 454 522 19,600 -1,065 Descending Chicago Center
Mon 01:40:07 PM 42.4042 -89.1778 93° East 433 498 18,400 -1,403 Descending Chicago Center
Mon 01:41:09 PM 42.3978 -89.0208 93° East 421 484 16,700 -1,887 Descending Chicago Center
Mon 01:42:11 PM 42.3906 -88.8694 94° East 407 468 14,500 -2,226 Descending Chicago Center
Mon 01:43:13 PM 42.3833 -88.6908 93° East 408 470 12,100 -2,112 Descending Chicago Center
Mon 01:44:16 PM 42.3783 -88.5442 93° East 397 457 10,100 -1,008 Descending Chicago Center
Mon 01:45:18 PM 42.3500 -88.4189 107° East 370 426 10,000 -48 Descending Chicago Center
Mon 01:46:20 PM 42.2878 -88.2992 125° Southeast 370 426 10,000 -48 Level Chicago Center
Mon 01:47:22 PM 42.2225 -88.1911 129° Southeast 374 430 9,900 -532 Descending Chicago Center
Mon 01:48:24 PM 42.1625 -88.1086 134° Southeast 315 362 8,900 -1,190 Descending Chicago Center
Mon 01:49:23 PM 42.1000 -88.0167 132° Southeast 301 346 7,500 -958 Descending Chicago TRACON
Mon 01:50:23 PM 42.1000 -87.9167 90° East 266 306 7,000 -300 Descending Chicago TRACON
Mon 01:51:23 PM 42.0833 -87.8333 105° East 246 283 6,900 -595 Descending Chicago TRACON
Mon 01:52:24 PM 42.1000 -87.7333 77° East 244 281 5,800 -1,041 Descending Chicago TRACON
Mon 01:53:24 PM 42.0500 -87.7000 154° Southeast 231 266 4,800 -1,000 Descending Chicago TRACON

Login

Don't have an account? Register now (free) for customized features, flight alerts, and more!